createdAt,value
2022-11-20T00:01:33.156Z,6.63
2022-11-20T00:04:02.013Z,7.43
2022-11-20T00:06:31.114Z,7.20
2022-11-20T00:09:02.353Z,7.57
2022-11-20T00:11:32.020Z,8.57
2022-11-20T00:14:02.648Z,8.40
2022-11-20T00:16:34.315Z,8.67
2022-11-20T00:19:02.802Z,8.30
2022-11-20T00:21:32.041Z,8.37
2022-11-20T00:24:01.995Z,7.53
2022-11-20T00:26:31.570Z,7.63
2022-11-20T00:29:02.433Z,7.23
2022-11-20T00:31:33.952Z,9.13
2022-11-20T00:34:02.408Z,7.93
2022-11-20T00:36:34.088Z,7.83
2022-11-20T00:39:04.126Z,7.30
2022-11-20T00:41:32.681Z,8.73
2022-11-20T00:44:01.251Z,8.13
2022-11-20T00:46:30.184Z,8.23
2022-11-20T00:48:58.949Z,8.50
2022-11-20T00:51:29.027Z,8.20
2022-11-20T00:53:58.518Z,6.40
2022-11-20T00:56:28.359Z,9.03
2022-11-20T00:58:57.201Z,7.23
2022-11-20T01:01:27.909Z,8.17
2022-11-20T01:03:59.429Z,7.80
2022-11-20T01:06:30.008Z,8.23
2022-11-20T01:09:01.242Z,7.73
2022-11-20T01:11:33.061Z,7.43
2022-11-20T01:14:02.813Z,7.60
2022-11-20T01:16:33.543Z,7.40
2022-11-20T01:19:03.901Z,9.57
2022-11-20T01:21:34.302Z,9.10
2022-11-20T01:24:03.575Z,21.80
2022-11-20T01:26:35.180Z,17.17
2022-11-20T01:29:05.026Z,10.93
2022-11-20T01:31:35.196Z,9.40
2022-11-20T01:34:05.415Z,8.37
2022-11-20T01:36:36.435Z,10.30
2022-11-20T01:39:07.380Z,8.20
2022-11-20T01:41:54.643Z,8.17
2022-11-20T01:44:43.999Z,8.27
2022-11-20T01:47:16.089Z,8.50
2022-11-20T01:49:48.814Z,8.07
2022-11-20T01:52:22.137Z,9.07
2022-11-20T01:54:56.620Z,8.37
2022-11-20T01:57:28.902Z,8.17
2022-11-20T02:00:03.759Z,8.70
2022-11-20T02:02:43.270Z,8.37
2022-11-20T02:05:20.393Z,8.53
2022-11-20T02:07:49.412Z,8.93
2022-11-20T02:10:18.607Z,7.57
2022-11-20T02:13:05.980Z,8.67
2022-11-20T02:15:35.588Z,7.63
2022-11-20T02:18:04.578Z,8.17
2022-11-20T02:20:33.151Z,7.93
2022-11-20T02:23:06.977Z,8.70
2022-11-20T02:25:38.854Z,8.27
2022-11-20T02:28:07.797Z,7.97
2022-11-20T02:30:36.415Z,8.90
2022-11-20T02:33:05.017Z,8.13
2022-11-20T02:35:45.407Z,9.00
2022-11-20T02:38:15.004Z,8.83
2022-11-20T02:40:45.492Z,7.73
2022-11-20T02:43:14.180Z,7.77
2022-11-20T02:45:42.925Z,8.20
2022-11-20T02:48:11.591Z,8.20
2022-11-20T02:50:41.627Z,8.53
2022-11-20T02:53:10.395Z,7.57
2022-11-20T02:55:39.286Z,8.60
2022-11-20T02:58:09.544Z,10.07
2022-11-20T03:00:38.229Z,7.57
2022-11-20T03:03:06.935Z,9.83
2022-11-20T03:05:35.857Z,9.80
2022-11-20T03:08:04.832Z,9.30
2022-11-20T03:10:33.741Z,9.13
2022-11-20T03:13:02.455Z,10.83
2022-11-20T03:15:33.837Z,8.40
2022-11-20T03:18:08.092Z,9.03
2022-11-20T03:20:43.282Z,8.40
2022-11-20T03:23:12.299Z,8.43
2022-11-20T03:25:46.089Z,7.53
2022-11-20T03:28:17.180Z,10.40
2022-11-20T03:30:58.319Z,9.10
2022-11-20T03:33:33.219Z,8.03
2022-11-20T03:36:03.819Z,9.00
2022-11-20T03:38:33.534Z,8.37
2022-11-20T03:41:04.354Z,8.40
2022-11-20T03:43:34.509Z,8.47
2022-11-20T03:46:08.685Z,7.40
2022-11-20T03:48:40.878Z,7.93
2022-11-20T03:51:17.130Z,8.80
2022-11-20T03:53:47.804Z,7.73
2022-11-20T03:56:18.720Z,8.53
2022-11-20T03:58:53.500Z,8.00
2022-11-20T04:01:36.127Z,8.80
2022-11-20T04:04:05.752Z,7.87
2022-11-20T04:06:42.867Z,9.03
2022-11-20T04:09:21.999Z,7.53
2022-11-20T04:11:50.969Z,8.53
2022-11-20T04:14:22.476Z,9.23
2022-11-20T04:16:52.718Z,9.50
2022-11-20T04:19:22.016Z,7.73
2022-11-20T04:21:50.838Z,7.07
2022-11-20T04:24:19.862Z,8.00
2022-11-20T04:27:05.835Z,6.97
2022-11-20T04:29:34.764Z,7.17
2022-11-20T04:32:06.688Z,6.97
2022-11-20T04:34:38.996Z,8.47
2022-11-20T04:37:11.326Z,7.50
2022-11-20T04:39:40.224Z,7.70
2022-11-20T04:42:31.864Z,8.00
2022-11-20T04:45:00.731Z,7.47
2022-11-20T04:47:31.069Z,8.20
2022-11-20T04:50:03.095Z,8.87
2022-11-20T04:52:35.275Z,9.07
2022-11-20T04:55:07.878Z,7.93
2022-11-20T04:57:36.446Z,7.27
2022-11-20T05:00:05.889Z,8.17
2022-11-20T05:02:36.040Z,7.37
2022-11-20T05:05:14.340Z,7.73
2022-11-20T05:07:43.592Z,7.77
2022-11-20T05:10:12.498Z,8.20
2022-11-20T05:12:41.807Z,8.73
2022-11-20T05:15:13.945Z,7.03
2022-11-20T05:17:49.521Z,7.67
2022-11-20T05:20:18.832Z,6.77
2022-11-20T05:22:47.974Z,6.90
2022-11-20T05:25:16.822Z,7.37
2022-11-20T05:27:45.707Z,8.17
2022-11-20T05:30:15.683Z,7.90
2022-11-20T05:32:45.769Z,7.97
2022-11-20T05:35:14.326Z,7.83
2022-11-20T05:37:42.849Z,9.10
2022-11-20T05:40:13.280Z,8.37
2022-11-20T05:42:44.688Z,7.60
2022-11-20T05:45:13.503Z,8.53
2022-11-20T05:47:42.153Z,8.60
2022-11-20T05:50:12.226Z,9.97
2022-11-20T05:52:40.907Z,8.70
2022-11-20T05:55:10.186Z,8.77
2022-11-20T05:57:38.808Z,9.13
2022-11-20T06:00:09.006Z,8.33
2022-11-20T06:02:38.035Z,8.27
2022-11-20T06:05:07.767Z,8.57
2022-11-20T06:07:39.783Z,7.80
2022-11-20T06:10:08.874Z,7.27
2022-11-20T06:12:37.454Z,7.13
2022-11-20T06:15:07.178Z,8.27
2022-11-20T06:17:35.793Z,7.17
2022-11-20T06:20:04.503Z,7.77
2022-11-20T06:22:34.582Z,7.27
2022-11-20T06:25:04.962Z,8.60
2022-11-20T06:27:33.606Z,7.10
2022-11-20T06:30:02.175Z,8.53
2022-11-20T06:32:30.676Z,9.00
2022-11-20T06:34:59.291Z,10.63
2022-11-20T06:37:27.791Z,7.70
2022-11-20T06:39:56.520Z,8.17
2022-11-20T06:42:26.526Z,7.97
2022-11-20T06:44:55.046Z,8.37
2022-11-20T06:47:23.618Z,8.00
2022-11-20T06:49:54.586Z,8.60
2022-11-20T06:52:23.332Z,8.00
2022-11-20T06:54:51.958Z,7.63
2022-11-20T06:57:20.859Z,7.77
2022-11-20T06:59:51.070Z,7.63
2022-11-20T07:02:20.188Z,8.53
2022-11-20T07:04:48.933Z,7.77
2022-11-20T07:07:18.125Z,8.40
2022-11-20T07:09:46.809Z,7.33
2022-11-20T07:12:15.429Z,7.53
2022-11-20T07:14:44.221Z,8.40
2022-11-20T07:17:14.493Z,9.13
2022-11-20T07:19:43.930Z,8.40
2022-11-20T07:22:12.720Z,7.67
2022-11-20T07:24:45.808Z,8.50
2022-11-20T07:27:23.195Z,8.33
2022-11-20T07:29:55.640Z,8.83
2022-11-20T07:32:31.735Z,8.00
2022-11-20T07:35:04.598Z,9.73
2022-11-20T07:37:36.254Z,10.60
2022-11-20T07:40:06.110Z,10.07
2022-11-20T07:42:34.812Z,10.27
2022-11-20T07:45:04.144Z,10.63
2022-11-20T07:47:38.481Z,11.20
2022-11-20T07:50:08.589Z,10.57
2022-11-20T07:52:37.015Z,10.90
2022-11-20T07:55:06.220Z,12.40
2022-11-20T07:57:34.833Z,12.37
2022-11-20T08:00:03.307Z,12.90
2022-11-20T08:02:42.382Z,17.17
2022-11-20T08:05:11.771Z,14.80
2022-11-20T08:07:41.085Z,14.23
2022-11-20T08:10:11.046Z,12.50
2022-11-20T08:13:03.953Z,9.87
2022-11-20T08:15:33.162Z,10.60
2022-11-20T08:18:29.549Z,11.37
2022-11-20T08:20:53.235Z,10.90
2022-11-20T08:23:21.765Z,10.40
2022-11-20T08:25:52.150Z,10.47
2022-11-20T08:28:22.333Z,10.53
2022-11-20T08:30:51.863Z,11.50
2022-11-20T08:33:21.696Z,10.73
2022-11-20T08:35:50.123Z,10.07
2022-11-20T08:38:18.537Z,9.30
2022-11-20T08:41:07.230Z,10.23
2022-11-20T08:43:35.678Z,10.43
2022-11-20T08:46:04.093Z,9.70
2022-11-20T08:48:33.914Z,10.10
2022-11-20T08:51:02.421Z,11.90
2022-11-20T08:53:31.179Z,10.17
2022-11-20T08:56:00.335Z,10.70
2022-11-20T08:58:31.000Z,10.50
2022-11-20T09:00:59.760Z,11.13
2022-11-20T09:03:32.651Z,9.63
2022-11-20T09:06:04.183Z,8.97
2022-11-20T09:08:33.083Z,9.63
2022-11-20T09:11:02.129Z,9.90
2022-11-20T09:13:31.554Z,9.60
2022-11-20T09:16:01.754Z,8.87
2022-11-20T09:18:32.560Z,10.30
2022-11-20T09:21:03.265Z,10.10
2022-11-20T09:23:34.595Z,10.07
2022-11-20T09:26:05.137Z,10.13
2022-11-20T09:28:34.281Z,9.97
2022-11-20T09:31:03.001Z,9.63
2022-11-20T09:33:31.431Z,10.77
2022-11-20T09:35:59.857Z,10.30
2022-11-20T09:38:30.381Z,10.03
2022-11-20T09:41:02.989Z,10.03
2022-11-20T09:43:48.596Z,9.93
2022-11-20T09:46:23.230Z,8.83
2022-11-20T09:49:07.482Z,9.73
2022-11-20T09:51:44.731Z,12.07
2022-11-20T09:54:19.534Z,12.37
2022-11-20T09:56:55.630Z,13.00
2022-11-20T09:59:36.935Z,12.33
2022-11-20T10:02:17.223Z,11.67
2022-11-20T10:04:49.839Z,10.07
2022-11-20T10:07:32.981Z,11.00
2022-11-20T10:10:03.246Z,10.47
2022-11-20T10:12:45.578Z,10.00
2022-11-20T10:15:28.074Z,11.10
2022-11-20T10:18:08.831Z,11.37
2022-11-20T10:20:46.648Z,10.20
2022-11-20T10:23:35.120Z,11.50
2022-11-20T10:26:12.951Z,10.57
2022-11-20T10:28:58.876Z,11.40
2022-11-20T10:31:34.143Z,10.60
2022-11-20T10:34:12.438Z,10.87
2022-11-20T10:36:46.072Z,11.90
2022-11-20T10:39:23.550Z,10.73
2022-11-20T10:41:55.141Z,12.73
2022-11-20T10:44:45.238Z,13.43
2022-11-20T10:47:16.494Z,12.20
2022-11-20T10:49:47.951Z,12.83
2022-11-20T10:52:27.862Z,12.20
2022-11-20T10:55:03.591Z,13.57
2022-11-20T10:57:53.617Z,12.93
2022-11-20T11:00:22.206Z,15.97
2022-11-20T11:02:52.306Z,13.03
2022-11-20T11:05:31.791Z,13.27
2022-11-20T11:08:01.378Z,12.30
2022-11-20T11:10:38.270Z,13.10
2022-11-20T11:13:08.159Z,13.00
2022-11-20T11:15:40.873Z,14.13
2022-11-20T11:18:11.977Z,13.20
2022-11-20T11:20:41.042Z,14.20
2022-11-20T11:23:30.585Z,14.83
2022-11-20T11:26:00.426Z,15.43
2022-11-20T11:28:30.800Z,16.43
2022-11-20T11:30:59.272Z,15.07
2022-11-20T11:33:29.766Z,15.07
2022-11-20T11:35:59.801Z,16.13
2022-11-20T11:38:32.947Z,15.97
2022-11-20T11:41:01.686Z,15.13
2022-11-20T11:43:52.280Z,14.77
2022-11-20T11:46:33.281Z,15.17
2022-11-20T11:49:03.055Z,15.23
2022-11-20T11:51:38.292Z,17.73
2022-11-20T11:54:17.871Z,15.50
2022-11-20T11:56:47.855Z,15.03
2022-11-20T11:59:27.557Z,15.83
2022-11-20T12:02:01.629Z,17.40
2022-11-20T12:04:44.145Z,16.87
2022-11-20T12:07:44.855Z,16.57
2022-11-20T12:10:07.881Z,15.17
2022-11-20T12:12:41.966Z,17.80
2022-11-20T12:15:14.855Z,15.87
2022-11-20T12:17:43.442Z,17.20
2022-11-20T12:20:16.021Z,16.97
2022-11-20T12:22:52.636Z,16.80
2022-11-20T12:25:24.323Z,15.70
2022-11-20T12:28:30.050Z,14.97
2022-11-20T12:31:17.062Z,16.00
2022-11-20T12:34:07.166Z,16.23
2022-11-20T12:36:47.192Z,15.53
2022-11-20T12:39:31.168Z,16.20
2022-11-20T12:42:33.126Z,17.50
2022-11-20T12:45:12.892Z,16.93
2022-11-20T12:48:02.423Z,18.33
2022-11-20T12:51:00.180Z,16.63
2022-11-20T12:53:37.707Z,16.93
2022-11-20T12:56:19.311Z,16.63
2022-11-20T12:58:58.096Z,17.27
2022-11-20T13:01:42.067Z,18.23
2022-11-20T13:04:26.479Z,17.97
2022-11-20T13:06:56.175Z,18.90
2022-11-20T13:09:25.807Z,17.17
2022-11-20T13:12:03.682Z,16.87
2022-11-20T13:14:38.623Z,17.83
2022-11-20T13:17:14.503Z,17.10
2022-11-20T13:19:48.504Z,16.50
2022-11-20T13:22:27.621Z,17.57
2022-11-20T13:24:56.322Z,16.43
2022-11-20T13:27:25.918Z,16.63
2022-11-20T13:30:18.150Z,16.90
2022-11-20T13:32:58.294Z,16.67
2022-11-20T13:35:31.453Z,15.67
2022-11-20T13:38:09.058Z,15.97
2022-11-20T13:40:39.826Z,18.33
2022-11-20T13:43:24.401Z,16.23
2022-11-20T13:45:58.147Z,16.33
2022-11-20T13:48:31.156Z,16.70
2022-11-20T13:51:14.114Z,16.97
2022-11-20T13:54:08.878Z,17.43
2022-11-20T13:56:47.811Z,16.27
2022-11-20T13:59:30.639Z,17.27
2022-11-20T14:01:59.249Z,16.47
2022-11-20T14:04:32.198Z,15.77
2022-11-20T14:07:02.527Z,16.00
2022-11-20T14:09:33.426Z,17.40
2022-11-20T14:12:03.206Z,17.00
2022-11-20T14:14:33.321Z,18.30
2022-11-20T14:17:08.661Z,17.87
2022-11-20T14:19:38.287Z,17.37
2022-11-20T14:22:19.673Z,17.40
2022-11-20T14:24:48.379Z,18.80
2022-11-20T14:27:18.586Z,22.47
2022-11-20T14:29:48.911Z,19.17
2022-11-20T14:32:19.360Z,18.97
2022-11-20T14:34:50.437Z,19.57
2022-11-20T14:37:26.071Z,20.37
2022-11-20T14:39:56.146Z,19.60
2022-11-20T14:42:26.470Z,19.50
2022-11-20T14:44:58.001Z,17.67
2022-11-20T14:47:28.059Z,18.07
2022-11-20T14:49:58.456Z,18.17
2022-11-20T14:52:31.999Z,18.30
2022-11-20T14:55:01.405Z,18.77
2022-11-20T14:57:31.677Z,19.70
2022-11-20T15:00:09.722Z,19.37
2022-11-20T15:02:43.043Z,17.50
2022-11-20T15:05:12.136Z,20.87
2022-11-20T15:07:46.773Z,19.53
2022-11-20T15:10:22.228Z,18.57
2022-11-20T15:12:52.725Z,18.17
2022-11-20T15:15:26.496Z,20.93
2022-11-20T15:17:55.144Z,19.30
2022-11-20T15:20:29.522Z,20.30
2022-11-20T15:22:59.427Z,19.30
2022-11-20T15:25:29.116Z,21.50
2022-11-20T15:27:58.744Z,22.23
2022-11-20T15:30:27.517Z,21.03
2022-11-20T15:32:55.936Z,20.50
2022-11-20T15:35:24.378Z,19.97
2022-11-20T15:37:52.887Z,22.80
2022-11-20T15:40:22.715Z,23.33
2022-11-20T15:43:11.594Z,24.43
2022-11-20T15:45:44.670Z,23.07
2022-11-20T15:48:16.756Z,21.97
2022-11-20T15:50:53.624Z,23.60
2022-11-20T15:53:22.335Z,22.60
2022-11-20T15:55:52.770Z,25.00
2022-11-20T15:58:21.321Z,24.17
2022-11-20T16:00:49.794Z,23.50
2022-11-20T16:03:21.182Z,22.10
2022-11-20T16:05:49.743Z,22.20
2022-11-20T16:08:18.164Z,25.20
2022-11-20T16:10:46.676Z,23.87
2022-11-20T16:13:36.500Z,23.33
2022-11-20T16:16:07.213Z,22.47
2022-11-20T16:18:35.915Z,23.67
2022-11-20T16:21:04.887Z,24.43
2022-11-20T16:23:34.051Z,24.17
2022-11-20T16:26:12.137Z,23.83
2022-11-20T16:28:42.365Z,22.40
2022-11-20T16:31:12.579Z,23.17
2022-11-20T16:33:41.193Z,21.40
2022-11-20T16:36:13.806Z,22.80
2022-11-20T16:38:42.974Z,23.83
2022-11-20T16:41:14.421Z,24.20
2022-11-20T16:43:49.055Z,21.90
2022-11-20T16:46:18.061Z,25.47
2022-11-20T16:48:46.530Z,25.43
2022-11-20T16:51:15.003Z,22.97
2022-11-20T16:53:43.555Z,22.60
2022-11-20T16:56:15.957Z,22.87
2022-11-20T16:58:44.680Z,20.73
2022-11-20T17:01:17.024Z,21.73
2022-11-20T17:03:47.813Z,21.00
2022-11-20T17:06:18.365Z,21.50
2022-11-20T17:08:47.602Z,20.67
2022-11-20T17:11:18.734Z,19.93
2022-11-20T17:13:49.158Z,21.17
2022-11-20T17:16:21.410Z,21.90
2022-11-20T17:18:50.255Z,23.23
2022-11-20T17:21:19.911Z,20.60
2022-11-20T17:23:48.782Z,19.70
2022-11-20T17:26:18.646Z,20.10
2022-11-20T17:28:48.167Z,19.20
2022-11-20T17:31:18.982Z,19.43
2022-11-20T17:33:48.482Z,21.73
2022-11-20T17:36:19.115Z,19.77
2022-11-20T17:38:48.242Z,21.63
2022-11-20T17:41:18.118Z,19.63
2022-11-20T17:43:47.054Z,19.37
2022-11-20T17:46:17.438Z,19.87
2022-11-20T17:48:48.424Z,19.30
2022-11-20T17:51:18.919Z,19.10
2022-11-20T17:53:49.995Z,20.30
2022-11-20T17:56:36.686Z,20.50
2022-11-20T17:59:05.872Z,20.37
2022-11-20T18:01:34.550Z,20.77
2022-11-20T18:04:05.180Z,21.60
2022-11-20T18:06:34.062Z,20.37
2022-11-20T18:09:05.096Z,24.00
2022-11-20T18:11:35.347Z,22.73
2022-11-20T18:14:23.786Z,22.43
2022-11-20T18:16:54.479Z,20.87
2022-11-20T18:19:31.264Z,21.90
2022-11-20T18:22:01.799Z,21.13
2022-11-20T18:24:30.865Z,22.80
2022-11-20T18:26:59.652Z,21.40
2022-11-20T18:29:31.006Z,23.47
2022-11-20T18:32:00.580Z,21.80
2022-11-20T18:34:30.609Z,21.57
2022-11-20T18:36:59.318Z,19.53
2022-11-20T18:39:27.908Z,21.83
2022-11-20T18:42:13.702Z,21.57
2022-11-20T18:44:55.037Z,21.77
2022-11-20T18:47:25.941Z,20.67
2022-11-20T18:49:57.322Z,21.67
2022-11-20T18:52:27.918Z,21.30
2022-11-20T18:54:56.726Z,19.67
2022-11-20T18:57:26.628Z,22.33
2022-11-20T18:59:55.624Z,19.40
2022-11-20T19:02:24.587Z,21.43
2022-11-20T19:04:53.055Z,20.47
2022-11-20T19:07:24.040Z,21.20
2022-11-20T19:09:53.712Z,21.03
2022-11-20T19:12:22.654Z,19.50
2022-11-20T19:14:51.140Z,21.03
2022-11-20T19:17:19.649Z,20.27
2022-11-20T19:19:49.632Z,21.70
2022-11-20T19:22:18.090Z,21.47
2022-11-20T19:24:47.890Z,19.33
2022-11-20T19:27:16.401Z,20.20
2022-11-20T19:29:44.946Z,20.30
2022-11-20T19:32:13.390Z,20.10
2022-11-20T19:34:42.012Z,25.43
2022-11-20T19:37:10.632Z,22.00
2022-11-20T19:39:40.176Z,21.07
2022-11-20T19:42:10.008Z,18.83
2022-11-20T19:44:38.390Z,19.63
2022-11-20T19:47:12.987Z,21.30
2022-11-20T19:49:42.560Z,20.23
2022-11-20T19:52:11.063Z,20.07
2022-11-20T19:54:39.475Z,20.17
2022-11-20T19:57:09.363Z,19.97
2022-11-20T19:59:38.178Z,19.97
2022-11-20T20:02:06.953Z,21.37
2022-11-20T20:04:35.458Z,21.57
2022-11-20T20:07:06.183Z,20.33
2022-11-20T20:09:35.225Z,21.10
2022-11-20T20:12:03.662Z,19.80
2022-11-20T20:14:34.778Z,20.47
2022-11-20T20:17:03.234Z,18.63
2022-11-20T20:19:31.708Z,19.80
2022-11-20T20:22:01.813Z,19.93
2022-11-20T20:24:30.260Z,19.90
2022-11-20T20:26:58.684Z,19.03
2022-11-20T20:29:27.238Z,21.53
2022-11-20T20:31:57.019Z,18.80
2022-11-20T20:34:29.646Z,18.20
2022-11-20T20:36:58.310Z,21.83
2022-11-20T20:39:26.787Z,20.97
2022-11-20T20:41:55.267Z,19.57
2022-11-20T20:44:41.250Z,18.03
2022-11-20T20:47:11.054Z,19.40
2022-11-20T20:49:39.532Z,19.40
2022-11-20T20:52:08.262Z,20.07
2022-11-20T20:54:36.782Z,18.30
2022-11-20T20:57:05.198Z,19.70
2022-11-20T20:59:33.666Z,20.73
2022-11-20T21:02:02.047Z,22.07
2022-11-20T21:04:31.912Z,21.33
2022-11-20T21:07:00.407Z,21.53
2022-11-20T21:09:29.007Z,21.20
2022-11-20T21:11:57.447Z,20.43
2022-11-20T21:14:26.159Z,20.67
2022-11-20T21:16:54.726Z,20.93
2022-11-20T21:19:23.256Z,20.30
2022-11-20T21:22:01.078Z,21.70
2022-11-20T21:24:31.077Z,21.33
2022-11-20T21:27:00.451Z,21.13
2022-11-20T21:29:30.532Z,21.60
2022-11-20T21:31:59.583Z,21.20
2022-11-20T21:34:28.861Z,22.07
2022-11-20T21:36:58.770Z,25.23
2022-11-20T21:39:27.259Z,27.43
2022-11-20T21:41:55.755Z,26.00
2022-11-20T21:44:30.992Z,24.90
2022-11-20T21:47:00.123Z,24.50
2022-11-20T21:49:28.794Z,22.57
2022-11-20T21:51:58.635Z,23.73
2022-11-20T21:54:27.548Z,21.70
2022-11-20T21:56:56.081Z,23.50
2022-11-20T21:59:24.725Z,21.40
2022-11-20T22:01:53.168Z,22.60
2022-11-20T22:04:22.803Z,22.43
2022-11-20T22:06:51.459Z,22.67
2022-11-20T22:09:21.300Z,22.53
2022-11-20T22:11:49.723Z,22.20
2022-11-20T22:14:24.751Z,22.43
2022-11-20T22:16:54.433Z,22.53
2022-11-20T22:19:24.121Z,24.40
2022-11-20T22:21:52.706Z,22.53
2022-11-20T22:24:23.863Z,22.20
2022-11-20T22:26:52.611Z,22.30
2022-11-20T22:29:22.139Z,21.17
2022-11-20T22:31:52.846Z,21.07
2022-11-20T22:34:21.750Z,21.10
2022-11-20T22:36:50.435Z,20.83
2022-11-20T22:39:18.890Z,21.57
2022-11-20T22:41:48.688Z,23.47
2022-11-20T22:44:17.248Z,22.37
2022-11-20T22:46:45.729Z,22.83
2022-11-20T22:49:14.146Z,22.87
2022-11-20T22:51:43.157Z,21.40
2022-11-20T22:54:13.167Z,23.57
2022-11-20T22:56:41.848Z,22.37
2022-11-20T22:59:12.363Z,23.40
2022-11-20T23:01:40.843Z,23.13
2022-11-20T23:04:11.660Z,21.67
2022-11-20T23:06:40.366Z,23.07
2022-11-20T23:09:09.885Z,21.77
2022-11-20T23:11:38.435Z,21.00
2022-11-20T23:14:08.674Z,21.90
2022-11-20T23:16:38.555Z,22.77
2022-11-20T23:19:08.851Z,22.97
2022-11-20T23:21:39.194Z,23.17
2022-11-20T23:24:08.786Z,21.67
2022-11-20T23:26:39.347Z,24.10
2022-11-20T23:29:08.548Z,22.43
2022-11-20T23:31:38.445Z,23.80
2022-11-20T23:34:07.002Z,24.53
2022-11-20T23:36:35.433Z,23.77
2022-11-20T23:39:03.863Z,22.83
2022-11-20T23:41:32.401Z,24.53
2022-11-20T23:44:00.992Z,23.50
2022-11-20T23:46:29.455Z,22.17
2022-11-20T23:48:59.274Z,22.23
2022-11-20T23:51:27.750Z,23.57
2022-11-20T23:54:00.496Z,21.17
2022-11-20T23:56:31.840Z,23.47
2022-11-20T23:59:00.501Z,22.37
